Weather observations for the past three days for
College Park Airport
Metric (Imperial)
Date Time (edt) Wind (kph) Vis. (km) Weather Sky Cond. Temperature (ºC) Relative Humidity Wind Chill (°C) Heat Index (°C) Pressure Precipitation (cm)
Air Dwpt 6 hour altimeter (cm) sea level (mb) 1 hr 3 hr 6 hr
Max. Min.
03 21:15 Calm 16.09 Fair CLR 9.6 1.1 56% 76.15 0.0
03 20:55 Calm 16.09 Fair CLR 10.4 1 52% 76.15 0.0
03 20:35 Calm 16.09 Fair CLR 11.8 -0.4 43% 76.12 0.0
03 20:15 Calm 16.09 Fair CLR 12.9 -0.6 40% 76.12 0.0
03 19:55 Calm 16.09 Fair CLR 15.7 -3.7 17.3 14 26% 76.1 0.0
03 19:35 SW 6 16.09 Fair CLR 16.3 -4.4 24% 76.1 0.0
03 19:15 SW 11 16.09 Fair CLR 16.5 -3.9 25% 76.07 0.0
03 18:55 W 9 16.09 Fair CLR 16.6 -4.4 24% 76.1 0.0
03 18:35 W 20 G 26 16.09 Fair CLR 17 -4.6 23% 76.1 0.0
03 18:15 W 9 16.09 Fair CLR 16.9 -4.7 23% 76.1 0.0
03 17:55 W 9 G 31 16.09 Fair CLR 17.1 -4.1 23% 76.1 0.0
03 17:35 W 15 16.09 Fair CLR 17.1 -3.4 25% 76.1 0.0
03 17:15 W 17 16.09 Partly Cloudy SCT085 16.8 -4.2 24% 76.1 0.0
03 16:55 W 24 G 33 16.09 Partly Cloudy SCT085 16.9 -4.3 23% 76.1 0.0
03 16:35 W 15 16.09 Fair CLR 16.1 -4 25% 76.1 0.0
03 16:15 W 19 G 31 16.09 Fair CLR 16.1 -3.9 25% 76.15 0.0
03 15:55 NW 20 G 26 16.09 Partly Cloudy SCT080 15.8 -3.2 27% 76.15 0.0
03 15:35 W 22 16.09 Mostly Cloudy BKN080 16.1 -2.9 27% 76.17 0.0
03 15:15 NW 15 16.09 Mostly Cloudy BKN070 15.3 -2.6 29% 76.2 0.0
03 14:55 NW 20 G 31 16.09 Partly Cloudy SCT070 15.1 -3.3 28% 76.23 0.0
03 14:35 NW 7 G 35 16.09 Partly Cloudy SCT070 14.6 -3.2 29% 76.23 0.0
03 14:15 W 19 16.09 Partly Cloudy SCT070 14.5 -2.3 32% 76.25 0.0
03 13:55 NW 17 G 28 16.09 Mostly Cloudy BKN070 14.5 -3.2 14.8 7.9 29% 76.25 0.0
03 13:35 W 20 G 35 16.09 Partly Cloudy SCT070 14.2 -2.6 31% 76.28 0.0
03 13:15 NW 26 G 31 16.09 Partly Cloudy SCT070 13.4 -3.7 31% 76.28 0.0
03 12:55 NW 15 G 31 16.09 Partly Cloudy SCT070 13 -3.8 31% 76.28 0.0
03 12:35 NW 20 G 31 16.09 Partly Cloudy SCT065 13 -3.5 32% 76.3 0.0
03 12:15 NW 19 G 35 16.09 Fair CLR 12.9 -2.9 33% 76.3 0.0
03 11:55 NW 19 G 31 16.09 Fair CLR 12.4 -3.2 34% 76.33 0.0
03 11:35 W 22 G 35 16.09 Fair CLR 12.2 -3.3 34% 76.33 0.0
03 11:15 NW 22 G 31 16.09 Partly Cloudy SCT060 11.6 -3.7 34% 76.33 0.0
03 10:55 W 22 G 41 16.09 Partly Cloudy SCT060 10.8 -4.2 35% 76.33 0.0
03 10:35 NW 13 G 33 16.09 Partly Cloudy SCT060 10.8 -4.4 34% 76.33 0.0
03 10:15 NW 19 G 30 16.09 Partly Cloudy SCT060 10.5 -4 36% 76.33 0.0
03 09:55 W 24 G 37 16.09 Fair CLR 10 -4.6 36% 7 76.35 0.0
03 09:35 NW 22 G 31 16.09 Fair CLR 9.8 -3.8 38% 7 76.35 0.0
03 09:15 NW 17 16.09 Fair CLR 9.5 -3.3 41% 7 76.35 0.0
03 08:55 W 19 16.09 Fair CLR 9 -3.4 42% 7 76.35 0.0
03 08:35 NW 15 G 30 16.09 Fair CLR 8.6 -3.2 44% 6 76.35 0.0
03 08:15 NW 20 16.09 Fair CLR 8.2 -2.6 47% 5 76.33 0.0
03 07:55 NW 17 G 28 16.09 Fair CLR 7.8 -2.3 8.3 5.7 49% 5 76.33 0.0
03 07:35 NW 17 16.09 Fair CLR 7.4 -2.2 51% 5 76.3 0.0
03 07:15 NW 17 16.09 Fair CLR 7.2 -2.2 52% 5 76.28 0.0
03 06:55 W 15 16.09 Fair CLR 6.8 -2 54% 4 76.25 0.0
03 06:35 W 11 16.09 Fair CLR 6.3 -1.4 58% 4 76.23 0.0
03 06:15 W 9 16.09 Fair CLR 6 -1 61% 4 76.2 0.0
03 05:55 W 11 16.09 Fair CLR 5.8 -0.7 63% 4 76.17 0.0
03 05:35 NW 6 16.09 Fair CLR 5.8 -0.4 65% 76.17 0.0
03 05:15 NW 7 16.09 Fair CLR 6 -0.2 65% 5 76.15 0.0
03 04:55 W 11 16.09 Fair CLR 6.2 -0.3 63% 4 76.15 0.0
03 04:35 W 9 16.09 Partly Cloudy SCT085 6.4 -0.4 62% 5 76.15 0.0
03 04:15 W 11 16.09 Partly Cloudy SCT085 6.5 -0.4 62% 5 76.15 0.0
03 03:55 W 13 16.09 Fair CLR 6.8 -0.5 60% 5 76.12 0.0
03 03:35 W 7 16.09 Fair CLR 7 -0.5 59% 6 76.12 0.0
03 03:15 W 9 16.09 Fair CLR 7.2 -0.4 59% 6 76.1 0.0
03 02:55 W 13 16.09 Fair CLR 7.3 -0.5 58% 5 76.1 0.0
03 02:35 W 9 16.09 Partly Cloudy SCT100 7.6 -0.6 56% 6 76.07 0.0
03 02:15 W 6 16.09 Partly Cloudy SCT100 8.1 -0.6 55% 76.07 0.0
03 01:55 W 9 16.09 Partly Cloudy SCT100 8.2 -0.5 13.2 8.1 55% 7 76.07 0.0
03 01:35 W 9 16.09 Partly Cloudy SCT100 8.5 -0.3 54% 7 76.07 0.0
03 01:15 W 9 16.09 Fair CLR 8.8 -0.2 54% 8 76.07 0.0
03 00:55 NW 11 16.09 Fair CLR 9.2 -0.1 53% 8 76.07 0.0
03 00:35 NW 11 16.09 Fair CLR 9.2 0 53% 8 76.1 0.0
03 00:15 NW 11 16.09 Fair CLR 9.4 0.2 53% 8 76.1 0.0
02 23:55 NW 9 16.09 Mostly Cloudy BKN095 9.9 0.1 51% 9 76.1 0.0
02 23:35 NW 17 16.09 Overcast OVC095 10.4 0.1 49% 76.07 0.0
02 23:15 N 13 16.09 Overcast OVC095 10.6 0.1 49% 76.07 0.0
02 22:55 NW 11 16.09 Overcast OVC095 10.8 0.2 48% 76.07 0.0
02 22:35 NW 15 16.09 Overcast OVC095 11.2 -0.1 46% 76.07 0.0
02 22:15 NW 9 16.09 Overcast OVC095 11.2 0 46% 76.07 0.0
02 21:55 NW 9 16.09 Mostly Cloudy BKN095 11 0.5 49% 76.05 0.0
02 21:35 NW 9 16.09 Mostly Cloudy BKN095 11.1 0.4 48% 76.05 0.0
02 21:15 N 7 16.09 Mostly Cloudy BKN095 11.9 -0.2 44% 76.02 0.0
02 20:55 NW 7 16.09 Partly Cloudy SCT095 12.2 -0.3 42% 76.02 0.0
02 20:35 NW 7 16.09 Fair CLR 12.4 -0.5 41% 76 0.0
02 20:15 NW 11 16.09 Fair CLR 13 -0.6 39% 75.97 0.0
02 19:55 NW 7 16.09 Fair CLR 13.2 -0.6 16.3 13.1 39% 75.97 0.0
02 19:35 N 11 16.09 Fair CLR 13.6 -0.8 37% 75.95 0.0
02 19:15 NW 15 16.09 Partly Cloudy SCT085 13.6 -0.6 38% 75.95 0.0
02 18:55 NW 17 16.09 Mostly Cloudy BKN085 13.9 -1.2 36% 75.95 0.0
02 18:35 NW 15 16.09 Overcast SCT070 OVC085 14.2 -1.3 35% 75.95 0.0
02 18:15 NW 15 16.09 Mostly Cloudy BKN070 BKN085 14.5 -1.2 34% 75.95 0.0
02 17:55 NW 17 16.09 Overcast OVC080 15.1 -1.4 32% 75.95 0.0
02 17:35 NW 19 16.09 Mostly Cloudy BKN080 14.9 -2.3 31% 75.92 0.0
02 17:15 NW 17 16.09 Mostly Cloudy BKN070 15 -2.6 30% 75.92 0.0
02 16:55 NW 9 16.09 Mostly Cloudy BKN070 15.1 -1.8 31% 75.9 0.0
02 16:35 N 19 16.09 Overcast OVC080 15.4 -1.2 32% 75.9 0.0
02 16:15 NW 13 16.09 Mostly Cloudy BKN080 15.7 -0.8 33% 75.9 0.0
02 15:55 NW 20 G 26 16.09 Mostly Cloudy BKN070 15.6 -0.4 34% 75.92 0.0
02 15:35 W 13 16.09 Mostly Cloudy BKN070 14.4 -0.7 36% 75.95 0.0
02 15:15 NW 7 16.09 Partly Cloudy SCT070 15.1 -0.3 35% 75.97 0.0
02 14:55 NW 7 16.09 Mostly Cloudy BKN070 14.6 -0.7 35% 76 0.0
02 14:35 N 15 16.09 Partly Cloudy SCT070 15 -0.9 34% 76.02 0.0
02 14:15 W 13 16.09 Mostly Cloudy BKN070 14.8 0 37% 76.05 0.0
02 13:55 NW 9 16.09 Partly Cloudy SCT060 14.3 -0.9 15 9.5 35% 76.05 0.0
02 13:35 NW 17 16.09 Partly Cloudy SCT060 14.7 0.2 37% 76.07 0.0
02 13:15 NE 11 16.09 Partly Cloudy SCT060 14.1 0.3 39% 76.07 0.0
02 12:55 NW 9 16.09 Fair CLR 13.8 0.5 40% 76.07 0.0
02 12:35 NW 13 16.09 Partly Cloudy SCT050 13.3 -0.4 39% 76.1 0.0
02 12:15 NW 7 16.09 Partly Cloudy SCT050 12.7 0.7 44% 76.1 0.0
02 11:55 SW 6 16.09 Fair CLR 12.7 0.7 44% 76.12 0.0
02 11:35 N 11 16.09 Fair CLR 13.1 1.9 47% 76.12 0.0
02 11:15 NW 15 16.09 Fair CLR 12.5 1.6 48% 76.15 0.0
02 10:55 N 15 16.09 Fair CLR 12.5 1.6 48% 76.12 0.0
02 10:35 NW 15 16.09 Fair CLR 11.9 1.2 48% 76.12 0.0
02 10:15 N 15 16.09 Fair CLR 11.9 1.6 50% 76.1 0.0
02 09:55 NW 9 16.09 Fair CLR 10.9 1.9 54% 76.12 0.0
02 09:35 N 17 16.09 Fair CLR 10.4 1.6 55% 76.12 0.0
02 09:15 N 13 16.09 Fair CLR 10.3 2.1 57% 76.12 0.0
02 08:55 N 17 16.09 Fair CLR 9.9 2.3 59% 8 76.12 0.0
02 08:35 NW 15 16.09 Fair CLR 9.9 2.6 61% 8 76.12 0.0
02 08:15 NW 15 16.09 Partly Cloudy SCT080 10.1 2.9 61% 76.12 0.0
02 07:55 NW 11 16.09 Fair CLR 9.6 2.8 13.6 9.5 63% 8 76.12 0.0
02 07:35 NW 13 16.09 Partly Cloudy SCT100 9.5 2.4 62% 8 76.12 0.0
02 07:15 NW 15 16.09 Partly Cloudy SCT100 9.5 2.1 60% 8 76.12 0.0
02 06:55 NW 17 16.09 Mostly Cloudy BKN100 9.8 1.8 58% 8 76.1 0.0
02 06:35 NW 9 16.09 Mostly Cloudy BKN100 9.7 2.1 59% 9 76.07 0.0
02 06:15 NW 13 16.09 Fair CLR 10.1 2 57% 76.07 0.0
02 05:55 NW 17 G 33 16.09 Fair CLR 10.5 2.1 56% 76.05 0.0
02 05:35 NW 15 16.09 Fair CLR 10.7 2.6 58% 76.02 0.0
02 05:15 N 11 G 26 16.09 Partly Cloudy SCT090 10.9 2.9 58% 76.02 0.0
02 04:55 NW 19 G 30 16.09 Mostly Cloudy SCT070 BKN100 11.4 3.1 57% 76.02 0.0
02 04:35 NW 13 16.09 Overcast BKN070 OVC100 11.9 3.8 58% 76.02 0.0
02 04:10 NW 11 16.09 Overcast OVC070 12.1 4.6 60% 76 0.0
02 03:55 NW 13 16.09 Overcast OVC070 12.4 4.7 60% 76 0.0
02 03:35 NW 9 16.09 Overcast OVC070 12.5 5.1 61% 76 0.0
02 03:10 NW 11 16.09 Mostly Cloudy BKN070 BKN085 12.4 5.4 63% 75.97 0.0
02 02:35 NW 11 16.09 Mostly Cloudy BKN065 BKN120 12.9 5.4 61% 75.97 0.0
02 02:15 NW 13 16.09 Overcast OVC055 13.5 5.8 60% 76 0.0
02 01:55 NW 11 16.09 Overcast OVC055 13.5 6.6 17.8 11.8 63% 76 0.0
02 01:35 NW 11 16.09 Overcast OVC065 13.4 7 65% 76 0.0
02 01:15 NW 11 16.09 Overcast OVC065 13.5 7.4 67% 76 0.0
02 00:55 Calm 16.09 Overcast OVC070 11.9 9.5 85% 76 0.0
02 00:35 Calm 16.09 Overcast OVC070 11.9 9.4 85% 76.02 0.0
02 00:15 Calm 16.09 Light Rain OVC070 12.4 8.8 79% 76 0.0
01 23:55 Calm 16.09 Light Rain OVC070 13.8 6.7 63% 75.97 0.0
01 23:35 Calm 16.09 Overcast OVC070 14 6.1 59% 75.97 0.0
01 23:15 Calm 16.09 Overcast OVC080 14.1 5.9 58% 75.92 0.0
01 22:55 SE 6 16.09 Overcast BKN080 OVC100 14.2 5.8 57% 75.92 0.0
01 22:35 S 6 16.09 Overcast BKN080 OVC120 14.3 5.6 56% 75.92 0.0
01 22:15 SE 9 16.09 Overcast SCT090 OVC120 14.5 5.5 55% 75.92 0.0
01 21:55 SE 7 16.09 Overcast OVC090 14.7 5.1 53% 75.92 0.0
01 21:35 SE 6 16.09 Overcast OVC090 15.1 4.6 50% 75.9 0.0
01 21:15 E 6 16.09 Overcast BKN090 OVC120 15.4 4.1 47% 75.9 0.0
01 20:55 SE 9 16.09 Overcast BKN100 OVC120 15.7 3.8 45% 75.84 0.0
01 20:35 SE 9 16.09 Overcast SCT100 OVC120 16.8 2.9 40% 75.82 0.0
01 20:15 SE 11 16.09 Overcast OVC110 17.6 1.9 35% 75.82 0.0
01 19:55 SE 11 16.09 Mostly Cloudy BKN110 17.8 1.6 19.7 17.5 34% 75.79 0.0
01 19:35 SE 9 16.09 Mostly Cloudy BKN110 18.3 1.5 33% 75.79 0.0
01 19:15 SE 9 16.09 Partly Cloudy SCT120 18.4 1.4 32% 75.79 0.0
01 18:55 SE 11 16.09 Partly Cloudy SCT120 18.9 1.9 32% 75.79 0.0
01 18:35 S 11 16.09 Fair CLR 19.2 1.4 31% 75.79 0.0
01 18:15 S 7 16.09 Fair CLR 19.4 1.4 30% 75.82 0.0
01 17:55 S 13 16.09 Fair CLR 19.3 1.3 30% 75.82 0.0
01 17:35 S 13 16.09 Fair CLR 19.3 1.6 31% 75.84 0.0
01 17:15 S 13 16.09 Fair CLR 19.5 1.6 30% 75.82 0.0
01 16:55 S 13 16.09 Fair CLR 19.1 1.9 32% 75.82 0.0
01 16:35 S 11 16.09 Fair CLR 19.2 1.1 30% 75.84 0.0
01 16:15 SW 17 16.09 Fair CLR 19.4 1.2 30% 75.87 0.0
01 15:55 S 13 16.09 Fair CLR 19 1.3 31% 75.92 0.0
01 15:35 S 13 16.09 Fair CLR 18.7 2.7 35% 75.92 0.0
01 15:15 S 13 16.09 Fair CLR 18.7 1.1 31% 75.95 0.0
01 14:55 SW 11 16.09 Fair CLR 18.2 0.8 31% 75.97 0.0
01 14:35 SW 13 16.09 Fair CLR 18.3 0.5 30% 76 0.0
01 14:15 SW 13 16.09 Fair CLR 17.9 1.2 33% 76 0.0
01 13:55 S 13 16.09 Fair CLR 17.5 1.3 17.9 8.5 34% 76.02 0.0
01 13:35 SW 15 16.09 Fair CLR 17.4 1 33% 76.02 0.0
01 13:15 W 11 16.09 Fair CLR 16.9 1.3 35% 76.05 0.0
01 12:55 S 7 16.09 Fair CLR 16.3 0.4 34% 76.07 0.0
01 12:35 S 6 16.09 Fair CLR 16.5 0.3 34% 76.07 0.0
01 12:15 SW 6 16.09 Fair CLR 16.2 1.1 36% 76.1 0.0
01 11:55 SE 11 16.09 Fair CLR 15.4 0.8 37% 76.12 0.0
01 11:35 Calm 16.09 Fair CLR 15 0 36% 76.15 0.0
01 11:15 NW 9 16.09 Fair CLR 14.8 1.6 41% 76.17 0.0
01 10:55 NE 7 16.09 Fair CLR 14 0.8 41% 76.17 0.0
01 10:35 N 7 16.09 Fair CLR 13.9 1.2 42% 76.17 0.0
01 10:15 N 7 16.09 Fair CLR 13.6 1.2 43% 76.17 0.0
01 09:55 Calm 16.09 Fair CLR 13.2 2.3 48% 76.2 0.0
01 09:35 SE 6 16.09 Fair CLR 13 2.6 50% 76.2 0.0
01 09:15 Calm 16.09 Fair CLR 12.1 2.9 54% 76.2 0.0
01 08:55 N 9 16.09 Fair CLR 11.7 3.2 56% 76.23 0.0
01 08:35 N 11 16.09 Fair CLR 11 3.8 61% 76.23 0.0
01 08:15 N 7 16.09 Fair CLR 10 4.7 70% 9 76.25 0.0
01 07:55 Calm 16.09 Fair CLR 8.2 5 8.4 3.2 80% 76.23 0.0
01 07:35 Calm 16.09 Fair CLR 6.4 5 91% 76.23 0.0
01 07:15 Calm 16.09 Fair CLR 5.1 4.1 93% 76.2 0.0
01 06:55 Calm 16.09 Fair CLR 4.2 3.2 93% 76.2 0.0
01 06:35 Calm 16.09 Fair CLR 3.9 3.1 95% 76.2 0.0
01 06:15 Calm 16.09 Fair CLR 3.5 2.8 95% 76.17 0.0
01 05:55 Calm 16.09 Fair CLR 3.4 2.6 95% 76.17 0.0
01 05:35 Calm 16.09 Fair CLR 3.4 2.6 95% 76.17 0.0
01 05:15 Calm 16.09 Fair CLR 3.5 2.8 95% 76.17 0.0
01 04:55 Calm 16.09 Fair CLR 3.6 2.9 95% 76.17 0.0
01 04:35 Calm 16.09 Fair CLR 3.6 2.8 95% 76.17 0.0
01 04:15 Calm 16.09 Fair CLR 3.7 2.9 95% 76.17 0.0
01 03:55 Calm 16.09 Fair CLR 3.9 3 94% 76.15 0.0
01 03:35 Calm 16.09 Fair CLR 4.3 3.2 93% 76.15 0.0
01 03:15 Calm 16.09 Fair CLR 4.3 3.3 93% 76.12 0.0
01 02:55 Calm 16.09 Fair CLR 4.4 3.2 92% 76.12 0.0
01 02:35 Calm 16.09 Fair CLR 4.9 3.5 91% 76.12 0.0
01 02:15 Calm 16.09 Fair CLR 4.9 3.5 91% 76.12 0.0
01 01:55 Calm 16.09 Fair CLR 5.5 3.5 14.8 5.3 87% 76.12 0.0
01 01:35 Calm 16.09 Fair CLR 5.7 3.7 87% 76.12 0.0
01 01:15 SE 6 16.09 Fair CLR 6.3 3.8 84% 76.12 0.0
01 00:55 Calm 16.09 Fair CLR 6.3 3.7 84% 76.12 0.0
01 00:35 Calm 16.09 Fair CLR 6.8 3.7 81% 76.12 0.0
01 00:15 Calm 16.09 Fair CLR 6.9 3.9 81% 76.1 0.0
30 23:55 Calm 16.09 Fair CLR 7.7 3.7 76% 76.1 0.0
30 23:35 Calm 16.09 Fair CLR 8.2 3.7 74% 76.1 0.0
30 23:15 W 7 16.09 Fair CLR 10.7 2.4 57% 76.1 0.0
30 22:55 NW 7 16.09 Fair CLR 9.9 2.5 60% 9 76.1 0.0
30 22:35 Calm 16.09 Fair CLR 9.7 3.1 64% 76.1 0.0
30 22:15 N 6 16.09 Fair CLR 11.4 1.8 52% 76.07 0.0
30 21:55 NW 7 16.09 Fair CLR 11.9 1.7 50% 76.07 0.0
30 21:35 NW 11 16.09 Fair CLR 12.4 1.6 48% 76.05 0.0
Date Time (edt) Wind (kph) Vis. (km) Weather Sky Cond. Air Dwpt Max. Min. Relative Humidity Wind Chill (°C) Heat Index (°C) altimeter (cm) sea level (mb) 1 hr 3 hr 6 hr
6 hour
Temperature (ºC) Pressure Precipitation (cm)